createdAt,value
2022-10-28T00:01:25.342Z,14.91
2022-10-28T00:03:55.737Z,14.90
2022-10-28T00:06:26.303Z,14.91
2022-10-28T00:08:54.821Z,15.13
2022-10-28T00:11:27.755Z,14.94
2022-10-28T00:13:59.887Z,14.69
2022-10-28T00:16:32.694Z,14.80
2022-10-28T00:19:01.627Z,14.69
2022-10-28T00:21:31.908Z,13.65
2022-10-28T00:23:59.685Z,13.97
2022-10-28T00:26:32.277Z,14.55
2022-10-28T00:29:02.857Z,14.51
2022-10-28T00:31:31.865Z,14.67
2022-10-28T00:34:00.806Z,14.82
2022-10-28T00:36:32.103Z,14.82
2022-10-28T00:39:00.889Z,14.70
2022-10-28T00:41:34.394Z,14.84
2022-10-28T00:44:23.158Z,14.27
2022-10-28T00:46:53.339Z,14.55
2022-10-28T00:49:30.373Z,14.75
2022-10-28T00:52:05.964Z,14.75
2022-10-28T00:54:34.690Z,14.86
2022-10-28T00:57:06.176Z,14.81
2022-10-28T00:59:37.695Z,14.46
2022-10-28T01:02:05.931Z,14.61
2022-10-28T01:04:34.003Z,14.65
2022-10-28T01:07:02.421Z,14.23
2022-10-28T01:09:30.072Z,13.88
2022-10-28T01:12:30.282Z,14.40
2022-10-28T01:15:20.730Z,14.15
2022-10-28T01:18:00.287Z,13.73
2022-10-28T01:20:27.739Z,13.29
2022-10-28T01:23:23.004Z,14.06
2022-10-28T01:25:59.458Z,14.39
2022-10-28T01:28:54.812Z,14.12
2022-10-28T01:31:43.258Z,14.25
2022-10-28T01:34:16.851Z,14.28
2022-10-28T01:36:52.914Z,14.64
2022-10-28T01:39:32.733Z,14.58
2022-10-28T01:42:06.474Z,14.18
2022-10-28T01:44:48.150Z,14.20
2022-10-28T01:47:30.622Z,14.53
2022-10-28T01:50:12.920Z,14.12
2022-10-28T01:52:42.262Z,14.13
2022-10-28T01:55:30.838Z,14.48
2022-10-28T01:58:00.820Z,14.67
2022-10-28T02:00:30.010Z,14.86
2022-10-28T02:02:57.770Z,14.82
2022-10-28T02:05:47.363Z,14.88
2022-10-28T02:08:23.552Z,14.48
2022-10-28T02:10:51.244Z,13.36
2022-10-28T02:13:21.007Z,13.09
2022-10-28T02:15:57.253Z,13.72
2022-10-28T02:18:41.742Z,14.36
2022-10-28T02:21:24.778Z,14.41
2022-10-28T02:24:33.429Z,14.22
2022-10-28T02:27:17.731Z,14.29
2022-10-28T02:29:59.462Z,14.51
2022-10-28T02:32:32.295Z,14.27
2022-10-28T02:35:01.873Z,14.51
2022-10-28T02:37:33.661Z,13.94
2022-10-28T02:40:06.893Z,13.18
2022-10-28T02:42:38.721Z,13.36
2022-10-28T02:45:32.463Z,13.67
2022-10-28T02:48:09.703Z,13.60
2022-10-28T02:50:43.715Z,13.79
2022-10-28T02:53:19.324Z,13.87
2022-10-28T02:55:52.589Z,13.87
2022-10-28T02:58:20.639Z,13.95
2022-10-28T03:00:49.725Z,14.03
2022-10-28T03:03:17.715Z,13.73
2022-10-28T03:05:45.353Z,13.52
2022-10-28T03:08:12.823Z,13.85
2022-10-28T03:10:40.313Z,14.04
2022-10-28T03:13:07.748Z,13.95
2022-10-28T03:15:35.767Z,14.02
2022-10-28T03:18:03.252Z,13.84
2022-10-28T03:20:30.846Z,13.95
2022-10-28T03:22:58.260Z,13.99
2022-10-28T03:25:25.883Z,14.16
2022-10-28T03:27:53.379Z,14.27
2022-10-28T03:30:20.961Z,14.15
2022-10-28T03:32:48.529Z,14.12
2022-10-28T03:35:16.215Z,13.98
2022-10-28T03:37:44.147Z,14.09
2022-10-28T03:40:12.563Z,14.28
2022-10-28T03:42:43.066Z,14.10
2022-10-28T03:45:11.189Z,14.24
2022-10-28T03:47:40.026Z,14.44
2022-10-28T03:50:07.865Z,14.49
2022-10-28T03:52:35.291Z,14.54
2022-10-28T03:55:02.996Z,14.44
2022-10-28T03:57:31.705Z,14.48
2022-10-28T03:59:59.410Z,14.09
2022-10-28T04:02:27.179Z,14.41
2022-10-28T04:04:56.429Z,14.53
2022-10-28T04:07:24.057Z,14.54
2022-10-28T04:09:51.581Z,14.39
2022-10-28T04:12:19.106Z,14.16
2022-10-28T04:14:47.338Z,14.31
2022-10-28T04:17:14.834Z,14.25
2022-10-28T04:19:42.292Z,14.25
2022-10-28T04:22:09.781Z,14.37
2022-10-28T04:24:37.352Z,14.04
2022-10-28T04:27:04.841Z,13.92
2022-10-28T04:29:32.769Z,14.08
2022-10-28T04:32:00.466Z,14.11
2022-10-28T04:34:27.972Z,14.20
2022-10-28T04:36:55.538Z,14.39
2022-10-28T04:39:23.088Z,14.43
2022-10-28T04:41:50.593Z,14.32
2022-10-28T04:44:18.103Z,14.37
2022-10-28T04:46:45.616Z,14.04
2022-10-28T04:49:13.146Z,14.14
2022-10-28T04:51:40.990Z,14.21
2022-10-28T04:54:08.514Z,14.07
2022-10-28T04:56:35.981Z,14.21
2022-10-28T04:59:03.934Z,14.22
2022-10-28T05:01:31.529Z,14.30
2022-10-28T05:03:59.212Z,14.37
2022-10-28T05:06:26.739Z,14.40
2022-10-28T05:08:54.353Z,14.12
2022-10-28T05:11:21.819Z,14.17
2022-10-28T05:13:49.357Z,14.20
2022-10-28T05:16:16.930Z,14.23
2022-10-28T05:21:16.995Z,14.04
2022-10-28T05:23:44.519Z,13.60
2022-10-28T05:26:12.087Z,13.95
2022-10-28T05:28:39.702Z,13.94
2022-10-28T05:31:07.322Z,14.21
2022-10-28T05:33:34.888Z,14.37
2022-10-28T05:36:02.547Z,14.40
2022-10-28T05:38:30.018Z,14.43
2022-10-28T05:40:57.536Z,13.84
2022-10-28T05:43:25.140Z,13.95
2022-10-28T05:45:53.996Z,14.26
2022-10-28T05:48:21.911Z,13.95
2022-10-28T05:50:49.720Z,14.26
2022-10-28T05:53:17.298Z,14.15
2022-10-28T05:55:47.633Z,14.27
2022-10-28T05:58:16.541Z,14.10
2022-10-28T06:00:44.016Z,14.13
2022-10-28T06:03:12.404Z,14.05
2022-10-28T06:05:44.085Z,14.08
2022-10-28T06:08:14.691Z,14.43
2022-10-28T06:10:42.349Z,14.44
2022-10-28T06:13:08.358Z,14.22
2022-10-28T06:15:35.824Z,14.43
2022-10-28T06:18:03.400Z,14.58
2022-10-28T06:20:30.851Z,14.64
2022-10-28T06:22:58.360Z,14.73
2022-10-28T06:25:26.103Z,14.73
2022-10-28T06:27:58.181Z,14.44
2022-10-28T06:30:26.611Z,14.64
2022-10-28T06:32:57.345Z,14.36
2022-10-28T06:35:24.838Z,14.08
2022-10-28T06:37:55.334Z,14.25
2022-10-28T06:40:24.944Z,14.22
2022-10-28T06:43:05.146Z,14.55
2022-10-28T06:45:34.022Z,14.69
2022-10-28T06:48:05.832Z,14.43
2022-10-28T06:50:34.897Z,14.51
2022-10-28T06:53:02.987Z,14.70
2022-10-28T06:55:30.725Z,14.48
2022-10-28T06:58:02.962Z,14.40
2022-10-28T07:03:05.575Z,14.57
2022-10-28T07:05:33.167Z,14.62
2022-10-28T07:08:00.600Z,14.75
2022-10-28T07:10:28.318Z,14.63
2022-10-28T07:12:56.238Z,14.84
2022-10-28T07:15:24.114Z,14.94
2022-10-28T07:17:53.787Z,14.55
2022-10-28T07:20:22.452Z,14.91
2022-10-28T07:22:56.989Z,14.94
2022-10-28T07:25:24.816Z,14.84
2022-10-28T07:27:52.803Z,14.76
2022-10-28T07:30:20.729Z,14.74
2022-10-28T07:32:48.669Z,14.95
2022-10-28T07:35:16.343Z,14.69
2022-10-28T07:37:43.833Z,14.72
2022-10-28T07:40:12.682Z,14.82
2022-10-28T07:42:40.683Z,15.03
2022-10-28T07:45:08.646Z,14.75
2022-10-28T07:47:36.175Z,14.89
2022-10-28T07:50:06.082Z,15.05
2022-10-28T07:52:34.850Z,14.62
2022-10-28T07:55:03.734Z,14.81
2022-10-28T07:57:32.013Z,14.86
2022-10-28T07:59:59.517Z,14.82
2022-10-28T08:02:27.359Z,14.97
2022-10-28T08:04:55.972Z,14.55
2022-10-28T08:07:23.566Z,14.60
2022-10-28T08:09:52.841Z,15.03
2022-10-28T08:12:20.312Z,14.83
2022-10-28T08:14:47.856Z,15.11
2022-10-28T08:17:15.493Z,14.95
2022-10-28T08:19:43.063Z,15.12
2022-10-28T08:22:10.972Z,15.00
2022-10-28T08:24:38.477Z,15.13
2022-10-28T08:27:06.037Z,15.33
2022-10-28T08:29:33.652Z,15.15
2022-10-28T08:32:01.166Z,15.19
2022-10-28T08:34:29.978Z,15.26
2022-10-28T08:36:57.940Z,15.49
2022-10-28T08:39:25.586Z,15.05
2022-10-28T08:42:25.234Z,15.45
2022-10-28T08:45:15.883Z,15.45
2022-10-28T08:47:46.403Z,15.73
2022-10-28T08:50:24.560Z,15.71
2022-10-28T08:53:10.282Z,15.74
2022-10-28T08:55:45.778Z,15.55
2022-10-28T08:58:13.293Z,15.23
2022-10-28T09:00:46.150Z,15.40
2022-10-28T09:03:13.638Z,15.24
2022-10-28T09:05:51.045Z,15.27
2022-10-28T09:08:29.237Z,15.29
2022-10-28T09:11:01.637Z,15.07
2022-10-28T09:13:44.089Z,15.29
2022-10-28T09:16:27.649Z,15.15
2022-10-28T09:18:57.531Z,15.07
2022-10-28T09:21:28.242Z,15.56
2022-10-28T09:23:57.837Z,15.39
2022-10-28T09:26:34.498Z,15.65
2022-10-28T09:29:20.111Z,15.41
2022-10-28T09:31:53.140Z,15.31
2022-10-28T09:34:29.295Z,15.16
2022-10-28T09:37:19.901Z,15.00
2022-10-28T09:39:51.789Z,15.36
2022-10-28T09:42:37.074Z,15.61
2022-10-28T09:45:12.295Z,15.50
2022-10-28T09:47:47.600Z,15.50
2022-10-28T09:50:20.879Z,15.32
2022-10-28T09:52:56.557Z,15.35
2022-10-28T09:55:24.769Z,15.18
2022-10-28T09:57:52.614Z,15.22
2022-10-28T10:00:20.907Z,15.51
2022-10-28T10:02:51.789Z,15.15
2022-10-28T10:05:19.692Z,15.23
2022-10-28T10:07:52.480Z,15.47
2022-10-28T10:10:26.991Z,15.42
2022-10-28T10:12:59.413Z,15.68
2022-10-28T10:15:36.777Z,15.69
2022-10-28T10:18:06.957Z,15.59
2022-10-28T10:20:52.742Z,15.42
2022-10-28T10:23:25.999Z,15.73
2022-10-28T10:26:00.093Z,15.75
2022-10-28T10:28:28.990Z,15.37
2022-10-28T10:30:59.250Z,15.57
2022-10-28T10:33:31.972Z,15.19
2022-10-28T10:36:02.154Z,15.19
2022-10-28T10:38:31.520Z,15.08
2022-10-28T10:40:59.010Z,15.17
2022-10-28T10:43:34.805Z,15.84
2022-10-28T10:46:06.237Z,15.98
2022-10-28T10:48:36.531Z,16.16
2022-10-28T10:51:09.445Z,15.94
2022-10-28T10:53:39.730Z,16.28
2022-10-28T10:56:10.881Z,16.00
2022-10-28T10:58:47.164Z,16.04
2022-10-28T11:01:21.419Z,15.62
2022-10-28T11:03:59.237Z,15.80
2022-10-28T11:06:30.530Z,15.93
2022-10-28T11:09:02.580Z,15.73
2022-10-28T11:11:37.400Z,16.13
2022-10-28T11:14:20.422Z,15.84
2022-10-28T11:16:56.090Z,16.00
2022-10-28T11:19:35.793Z,15.91
2022-10-28T11:22:22.192Z,15.80
2022-10-28T11:25:11.387Z,16.13
2022-10-28T11:27:55.464Z,15.97
2022-10-28T11:34:19.998Z,15.59
2022-10-28T11:37:14.875Z,16.10
2022-10-28T11:40:17.884Z,15.63
2022-10-28T11:43:06.957Z,15.54
2022-10-28T11:46:04.210Z,15.49
2022-10-28T11:49:03.851Z,15.23
2022-10-28T11:51:41.284Z,15.42
2022-10-28T11:54:41.072Z,15.57
2022-10-28T11:57:17.264Z,15.50
2022-10-28T12:00:03.654Z,15.46
2022-10-28T12:02:37.716Z,15.65
2022-10-28T12:05:49.819Z,15.40
2022-10-28T12:08:26.062Z,15.56
2022-10-28T12:11:08.832Z,15.14
2022-10-28T12:14:19.746Z,14.83
2022-10-28T12:17:12.830Z,14.89
2022-10-28T12:19:51.113Z,15.31
2022-10-28T12:22:51.643Z,15.35
2022-10-28T12:25:32.683Z,15.09
2022-10-28T12:28:41.096Z,15.23
2022-10-28T12:31:33.400Z,15.13
2022-10-28T12:34:09.232Z,15.49
2022-10-28T12:36:48.268Z,15.47
2022-10-28T12:39:24.235Z,15.53
2022-10-28T12:41:57.384Z,15.38
2022-10-28T12:44:31.250Z,15.37
2022-10-28T12:47:29.325Z,14.87
2022-10-28T12:50:18.092Z,15.34
2022-10-28T12:52:57.813Z,15.16
2022-10-28T12:55:37.543Z,15.12
2022-10-28T12:58:15.477Z,15.19
2022-10-28T13:00:48.024Z,15.23
2022-10-28T13:03:16.160Z,15.09
2022-10-28T13:06:01.705Z,15.25
2022-10-28T13:08:47.991Z,15.24
2022-10-28T13:11:35.091Z,15.11
2022-10-28T13:14:34.327Z,14.92
2022-10-28T13:17:29.953Z,15.18
2022-10-28T13:20:26.704Z,14.58
2022-10-28T13:23:11.538Z,14.70
2022-10-28T13:26:00.472Z,15.18
2022-10-28T13:28:45.034Z,14.89
2022-10-28T13:31:14.706Z,14.87
2022-10-28T13:33:54.344Z,14.69
2022-10-28T13:36:32.065Z,14.83
2022-10-28T13:39:03.378Z,14.90
2022-10-28T13:41:41.018Z,14.95
2022-10-28T13:44:10.896Z,15.06
2022-10-28T13:46:57.241Z,15.09
2022-10-28T13:49:34.487Z,14.44
2022-10-28T13:52:06.922Z,14.88
2022-10-28T13:54:43.615Z,14.85
2022-10-28T13:57:35.114Z,14.74
2022-10-28T14:00:06.953Z,14.95
2022-10-28T14:02:39.922Z,14.93
2022-10-28T14:05:13.479Z,14.60
2022-10-28T14:07:59.034Z,14.67
2022-10-28T14:11:03.880Z,14.71
2022-10-28T14:13:37.885Z,14.52
2022-10-28T14:16:30.040Z,14.41
2022-10-28T14:19:16.613Z,14.32
2022-10-28T14:21:48.514Z,14.54
2022-10-28T14:24:43.516Z,14.44
2022-10-28T14:27:15.398Z,14.56
2022-10-28T14:29:50.078Z,14.51
2022-10-28T14:32:32.997Z,14.59
2022-10-28T14:35:14.677Z,14.68
2022-10-28T14:37:42.540Z,14.77
2022-10-28T14:40:23.613Z,14.58
2022-10-28T14:43:26.404Z,14.69
2022-10-28T14:46:27.619Z,14.42
2022-10-28T14:48:57.439Z,14.48
2022-10-28T14:51:37.134Z,14.31
2022-10-28T14:54:12.536Z,14.32
2022-10-28T14:56:41.339Z,14.49
2022-10-28T14:59:24.539Z,14.82
2022-10-28T15:02:04.545Z,14.39
2022-10-28T15:04:32.360Z,14.53
2022-10-28T15:07:00.138Z,14.54
2022-10-28T15:09:35.753Z,14.86
2022-10-28T15:12:09.095Z,14.36
2022-10-28T15:14:52.204Z,14.79
2022-10-28T15:17:21.355Z,14.71
2022-10-28T15:19:54.372Z,14.15
2022-10-28T15:22:30.706Z,14.29
2022-10-28T15:25:04.482Z,14.54
2022-10-28T15:27:43.605Z,14.65
2022-10-28T15:30:23.886Z,14.38
2022-10-28T15:32:53.195Z,14.40
2022-10-28T15:35:26.898Z,14.23
2022-10-28T15:37:55.642Z,13.90
2022-10-28T15:40:35.745Z,14.24
2022-10-28T15:43:17.039Z,14.28
2022-10-28T15:45:45.588Z,14.27
2022-10-28T15:48:23.610Z,14.25
2022-10-28T15:51:12.939Z,14.06
2022-10-28T15:53:43.812Z,13.90
2022-10-28T15:56:14.048Z,14.19
2022-10-28T15:58:43.559Z,14.29
2022-10-28T16:01:33.470Z,14.31
2022-10-28T16:04:01.438Z,14.36
2022-10-28T16:06:37.094Z,14.40
2022-10-28T16:09:25.097Z,14.18
2022-10-28T16:11:57.479Z,14.34
2022-10-28T16:14:31.585Z,14.26
2022-10-28T16:17:13.783Z,14.10
2022-10-28T16:20:04.609Z,13.99
2022-10-28T16:22:35.682Z,14.13
2022-10-28T16:25:13.126Z,13.73
2022-10-28T16:27:41.058Z,14.19
2022-10-28T16:30:09.489Z,14.03
2022-10-28T16:32:39.566Z,14.33
2022-10-28T16:35:14.421Z,14.23
2022-10-28T16:37:44.799Z,14.08
2022-10-28T16:40:37.854Z,14.33
2022-10-28T16:43:02.381Z,14.39
2022-10-28T16:45:30.002Z,14.13
2022-10-28T16:47:57.861Z,14.50
2022-10-28T16:50:25.525Z,14.56
2022-10-28T16:52:54.991Z,14.16
2022-10-28T16:55:22.491Z,14.32
2022-10-28T16:57:50.133Z,14.35
2022-10-28T17:00:18.325Z,14.02
2022-10-28T17:02:50.687Z,14.12
2022-10-28T17:05:20.572Z,14.23
2022-10-28T17:07:48.307Z,14.32
2022-10-28T17:10:16.629Z,14.49
2022-10-28T17:12:44.335Z,14.23
2022-10-28T17:15:11.965Z,14.52
2022-10-28T17:17:42.359Z,14.41
2022-10-28T17:20:10.226Z,14.18
2022-10-28T17:22:39.818Z,14.42
2022-10-28T17:25:08.876Z,14.64
2022-10-28T17:27:36.579Z,14.66
2022-10-28T17:30:05.290Z,14.49
2022-10-28T17:32:32.921Z,14.41
2022-10-28T17:35:00.850Z,14.40
2022-10-28T17:37:28.649Z,14.38
2022-10-28T17:39:57.150Z,14.25
2022-10-28T17:42:24.963Z,14.49
2022-10-28T17:44:52.713Z,14.51
2022-10-28T17:47:20.456Z,14.67
2022-10-28T17:49:48.491Z,14.59
2022-10-28T17:52:15.936Z,14.36
2022-10-28T17:54:43.671Z,14.44
2022-10-28T17:57:11.714Z,14.22
2022-10-28T17:59:39.182Z,14.34
2022-10-28T18:02:06.796Z,14.58
2022-10-28T18:04:35.055Z,14.61
2022-10-28T18:07:02.556Z,14.55
2022-10-28T18:09:32.038Z,14.66
2022-10-28T18:12:02.171Z,14.61
2022-10-28T18:14:29.763Z,14.43
2022-10-28T18:16:57.512Z,14.50
2022-10-28T18:19:25.363Z,14.56
2022-10-28T18:21:52.946Z,14.61
2022-10-28T18:24:23.340Z,14.35
2022-10-28T18:26:55.661Z,14.31
2022-10-28T18:29:23.523Z,14.58
2022-10-28T18:31:51.534Z,14.61
2022-10-28T18:34:19.280Z,14.55
2022-10-28T18:36:47.249Z,14.60
2022-10-28T18:39:15.034Z,14.69
2022-10-28T18:41:43.812Z,14.62
2022-10-28T18:44:17.100Z,14.63
2022-10-28T18:46:45.858Z,14.57
2022-10-28T18:49:13.425Z,14.55
2022-10-28T18:51:41.175Z,14.55
2022-10-28T18:54:08.944Z,14.49
2022-10-28T18:56:37.072Z,14.53
2022-10-28T18:59:05.051Z,14.12
2022-10-28T19:01:33.317Z,14.52
2022-10-28T19:04:04.190Z,14.63
2022-10-28T19:06:33.297Z,14.53
2022-10-28T19:09:03.523Z,14.60
2022-10-28T19:11:32.749Z,14.59
2022-10-28T19:14:03.671Z,14.54
2022-10-28T19:16:35.138Z,14.57
2022-10-28T19:19:04.893Z,14.33
2022-10-28T19:21:33.308Z,14.22
2022-10-28T19:24:02.812Z,14.44
2022-10-28T19:26:31.989Z,14.44
2022-10-28T19:28:59.775Z,14.65
2022-10-28T19:31:27.518Z,14.59
2022-10-28T19:33:55.384Z,14.49
2022-10-28T19:36:25.536Z,14.47
2022-10-28T19:38:54.659Z,14.59
2022-10-28T19:41:29.829Z,14.46
2022-10-28T19:44:00.362Z,14.31
2022-10-28T19:46:30.527Z,14.41
2022-10-28T19:49:00.781Z,14.53
2022-10-28T19:51:30.960Z,14.48
2022-10-28T19:54:01.102Z,14.48
2022-10-28T19:56:32.506Z,14.39
2022-10-28T19:59:01.625Z,14.39
2022-10-28T20:01:32.480Z,14.51
2022-10-28T20:04:00.466Z,14.56
2022-10-28T20:06:33.494Z,14.62
2022-10-28T20:09:02.083Z,14.42
2022-10-28T20:11:31.752Z,14.53
2022-10-28T20:14:05.630Z,14.56
2022-10-28T20:16:33.314Z,14.32
2022-10-28T20:19:01.000Z,14.39
2022-10-28T20:21:30.703Z,14.11
2022-10-28T20:23:58.414Z,14.45
2022-10-28T20:26:31.134Z,14.48
2022-10-28T20:28:59.329Z,14.57
2022-10-28T20:31:29.425Z,14.70
2022-10-28T20:34:00.563Z,14.68
2022-10-28T20:36:35.450Z,14.46
2022-10-28T20:39:14.657Z,14.12
2022-10-28T20:41:45.161Z,14.19
2022-10-28T20:44:13.052Z,14.64
2022-10-28T20:46:41.128Z,14.79
2022-10-28T20:49:09.871Z,14.56
2022-10-28T20:51:37.520Z,14.47
2022-10-28T20:54:05.459Z,14.61
2022-10-28T20:56:36.176Z,14.59
2022-10-28T20:59:03.998Z,14.69
2022-10-28T21:01:34.732Z,14.55
2022-10-28T21:04:05.059Z,14.46
2022-10-28T21:06:33.260Z,14.65
2022-10-28T21:09:00.870Z,14.67
2022-10-28T21:11:28.767Z,14.82
2022-10-28T21:13:58.599Z,14.58
2022-10-28T21:16:27.507Z,14.65
2022-10-28T21:18:55.153Z,14.38
2022-10-28T21:21:24.386Z,14.48
2022-10-28T21:23:52.044Z,14.75
2022-10-28T21:26:19.758Z,14.67
2022-10-28T21:28:52.148Z,14.70
2022-10-28T21:31:21.081Z,14.72
2022-10-28T21:36:20.108Z,14.54
2022-10-28T21:38:48.173Z,14.71
2022-10-28T21:41:18.174Z,14.73
2022-10-28T21:43:47.890Z,14.66
2022-10-28T21:46:16.365Z,14.61
2022-10-28T21:48:43.945Z,14.12
2022-10-28T21:51:13.659Z,14.54
2022-10-28T21:53:43.792Z,14.64
2022-10-28T21:56:18.107Z,14.68
2022-10-28T21:58:51.308Z,14.66
2022-10-28T22:01:21.565Z,14.69
2022-10-28T22:03:50.439Z,14.48
2022-10-28T22:06:17.934Z,14.76
2022-10-28T22:08:46.888Z,14.73
2022-10-28T22:11:17.320Z,14.75
2022-10-28T22:13:44.924Z,14.59
2022-10-28T22:16:17.255Z,14.83
2022-10-28T22:18:45.847Z,14.57
2022-10-28T22:21:15.952Z,14.74
2022-10-28T22:23:44.121Z,14.31
2022-10-28T22:26:14.441Z,14.61
2022-10-28T22:28:42.713Z,14.52
2022-10-28T22:31:13.287Z,14.15
2022-10-28T22:33:41.090Z,14.57
2022-10-28T22:36:14.716Z,14.09
2022-10-28T22:38:42.694Z,14.71
2022-10-28T22:41:13.125Z,14.47
2022-10-28T22:43:42.677Z,14.19
2022-10-28T22:46:11.674Z,14.60
2022-10-28T22:48:39.248Z,14.54
2022-10-28T22:51:07.060Z,14.40
2022-10-28T22:53:34.695Z,14.55
2022-10-28T22:56:02.176Z,14.29
2022-10-28T22:58:29.792Z,14.01
2022-10-28T23:01:12.442Z,14.35
2022-10-28T23:03:42.340Z,14.55
2022-10-28T23:06:11.127Z,14.64
2022-10-28T23:08:40.926Z,14.73
2022-10-28T23:11:13.527Z,14.46
2022-10-28T23:13:41.228Z,14.62
2022-10-28T23:16:13.981Z,14.73
2022-10-28T23:18:42.422Z,14.27
2022-10-28T23:21:15.553Z,14.35
2022-10-28T23:23:49.713Z,14.35
2022-10-28T23:26:20.966Z,14.45
2022-10-28T23:28:53.679Z,14.53
2022-10-28T23:31:22.034Z,14.60
2022-10-28T23:33:49.798Z,14.52
2022-10-28T23:36:17.534Z,14.63
2022-10-28T23:38:45.141Z,14.22
2022-10-28T23:41:16.240Z,14.44
2022-10-28T23:43:44.813Z,14.65
2022-10-28T23:46:12.345Z,14.25
2022-10-28T23:48:40.177Z,14.42
2022-10-28T23:51:08.126Z,14.36
2022-10-28T23:53:35.653Z,14.28
2022-10-28T23:56:03.312Z,14.34
2022-10-28T23:58:30.849Z,14.60
